sensor_id;sensor_type;location;lat;lon;timestamp;temperature;humidity
16846;DHT22;8539;53.188;8.696;2023-12-20T00:01:51;5.00;99.90
16846;DHT22;8539;53.188;8.696;2023-12-20T00:04:17;5.00;99.90
16846;DHT22;8539;53.188;8.696;2023-12-20T00:06:43;4.90;99.90
16846;DHT22;8539;53.188;8.696;2023-12-20T00:09:09;4.90;99.90
16846;DHT22;8539;53.188;8.696;2023-12-20T00:11:35;5.00;99.90
16846;DHT22;8539;53.188;8.696;2023-12-20T00:14:01;5.00;99.90
16846;DHT22;8539;53.188;8.696;2023-12-20T00:16:27;5.00;99.90
16846;DHT22;8539;53.188;8.696;2023-12-20T00:18:53;5.00;99.90
16846;DHT22;8539;53.188;8.696;2023-12-20T00:21:19;5.10;99.90
16846;DHT22;8539;53.188;8.696;2023-12-20T00:23:46;5.10;99.90
16846;DHT22;8539;53.188;8.696;2023-12-20T00:26:12;5.00;99.90
16846;DHT22;8539;53.188;8.696;2023-12-20T00:28:38;5.00;99.90
16846;DHT22;8539;53.188;8.696;2023-12-20T00:31:04;5.00;99.90
16846;DHT22;8539;53.188;8.696;2023-12-20T00:33:30;5.00;99.90
16846;DHT22;8539;53.188;8.696;2023-12-20T00:35:57;5.00;99.90
16846;DHT22;8539;53.188;8.696;2023-12-20T00:38:23;5.00;99.90
16846;DHT22;8539;53.188;8.696;2023-12-20T00:40:49;5.00;99.90
16846;DHT22;8539;53.188;8.696;2023-12-20T00:43:15;4.90;99.90
16846;DHT22;8539;53.188;8.696;2023-12-20T00:45:42;4.90;99.90
16846;DHT22;8539;53.188;8.696;2023-12-20T00:48:08;4.70;99.90
16846;DHT22;8539;53.188;8.696;2023-12-20T00:50:34;4.80;99.90
16846;DHT22;8539;53.188;8.696;2023-12-20T00:53:01;4.80;99.90
16846;DHT22;8539;53.188;8.696;2023-12-20T00:55:27;4.80;99.90
16846;DHT22;8539;53.188;8.696;2023-12-20T00:57:53;4.70;99.90
16846;DHT22;8539;53.188;8.696;2023-12-20T01:00:20;4.80;99.90
16846;DHT22;8539;53.188;8.696;2023-12-20T01:02:46;4.70;99.90
16846;DHT22;8539;53.188;8.696;2023-12-20T01:05:15;4.70;99.90
16846;DHT22;8539;53.188;8.696;2023-12-20T01:07:41;4.70;99.90
16846;DHT22;8539;53.188;8.696;2023-12-20T01:10:08;4.70;99.90
16846;DHT22;8539;53.188;8.696;2023-12-20T01:12:36;4.70;99.90
16846;DHT22;8539;53.188;8.696;2023-12-20T01:15:06;4.70;99.90
16846;DHT22;8539;53.188;8.696;2023-12-20T01:17:32;4.70;99.90
16846;DHT22;8539;53.188;8.696;2023-12-20T01:19:59;4.60;99.90
16846;DHT22;8539;53.188;8.696;2023-12-20T01:22:25;4.60;99.90
16846;DHT22;8539;53.188;8.696;2023-12-20T01:24:51;4.60;99.90
16846;DHT22;8539;53.188;8.696;2023-12-20T01:27:18;4.60;99.90
16846;DHT22;8539;53.188;8.696;2023-12-20T01:29:44;4.60;99.90
16846;DHT22;8539;53.188;8.696;2023-12-20T01:32:11;4.60;99.90
16846;DHT22;8539;53.188;8.696;2023-12-20T01:34:37;4.60;99.90
16846;DHT22;8539;53.188;8.696;2023-12-20T01:37:04;4.50;99.90
16846;DHT22;8539;53.188;8.696;2023-12-20T01:39:30;4.50;99.90
16846;DHT22;8539;53.188;8.696;2023-12-20T01:41:56;4.50;99.90
16846;DHT22;8539;53.188;8.696;2023-12-20T01:44:22;4.50;99.90
16846;DHT22;8539;53.188;8.696;2023-12-20T01:46:49;4.50;99.90
16846;DHT22;8539;53.188;8.696;2023-12-20T01:49:15;4.50;99.90
16846;DHT22;8539;53.188;8.696;2023-12-20T01:51:43;4.40;99.90
16846;DHT22;8539;53.188;8.696;2023-12-20T01:54:09;4.40;99.90
16846;DHT22;8539;53.188;8.696;2023-12-20T01:56:36;4.40;99.90
16846;DHT22;8539;53.188;8.696;2023-12-20T01:59:02;4.40;99.90
16846;DHT22;8539;53.188;8.696;2023-12-20T02:01:30;4.40;99.90
16846;DHT22;8539;53.188;8.696;2023-12-20T02:03:57;4.40;99.90
16846;DHT22;8539;53.188;8.696;2023-12-20T02:06:24;4.40;99.90
16846;DHT22;8539;53.188;8.696;2023-12-20T02:08:55;4.40;99.90
16846;DHT22;8539;53.188;8.696;2023-12-20T02:11:21;4.40;99.90
16846;DHT22;8539;53.188;8.696;2023-12-20T02:13:47;4.40;99.90
16846;DHT22;8539;53.188;8.696;2023-12-20T02:16:13;4.40;99.90
16846;DHT22;8539;53.188;8.696;2023-12-20T02:18:39;4.40;99.90
16846;DHT22;8539;53.188;8.696;2023-12-20T02:21:05;4.40;99.90
16846;DHT22;8539;53.188;8.696;2023-12-20T02:23:32;4.40;99.90
16846;DHT22;8539;53.188;8.696;2023-12-20T02:25:58;4.40;99.90
16846;DHT22;8539;53.188;8.696;2023-12-20T02:28:24;4.50;99.90
16846;DHT22;8539;53.188;8.696;2023-12-20T02:30:50;4.50;99.90
16846;DHT22;8539;53.188;8.696;2023-12-20T02:33:16;4.50;99.90
16846;DHT22;8539;53.188;8.696;2023-12-20T02:35:42;4.50;99.90
16846;DHT22;8539;53.188;8.696;2023-12-20T02:38:08;4.50;99.90
16846;DHT22;8539;53.188;8.696;2023-12-20T02:40:35;4.50;99.90
16846;DHT22;8539;53.188;8.696;2023-12-20T02:43:01;4.60;99.90
16846;DHT22;8539;53.188;8.696;2023-12-20T02:45:27;4.60;99.90
16846;DHT22;8539;53.188;8.696;2023-12-20T02:47:53;4.60;99.90
16846;DHT22;8539;53.188;8.696;2023-12-20T02:50:19;4.70;99.90
16846;DHT22;8539;53.188;8.696;2023-12-20T02:52:45;4.70;99.90
16846;DHT22;8539;53.188;8.696;2023-12-20T02:55:12;4.70;99.90
16846;DHT22;8539;53.188;8.696;2023-12-20T02:57:38;4.70;99.90
16846;DHT22;8539;53.188;8.696;2023-12-20T03:00:10;4.70;99.90
16846;DHT22;8539;53.188;8.696;2023-12-20T03:02:37;4.80;99.90
16846;DHT22;8539;53.188;8.696;2023-12-20T03:05:03;4.80;99.90
16846;DHT22;8539;53.188;8.696;2023-12-20T03:07:29;4.80;99.90
16846;DHT22;8539;53.188;8.696;2023-12-20T03:09:55;5.00;99.90
16846;DHT22;8539;53.188;8.696;2023-12-20T03:12:21;4.80;99.90
16846;DHT22;8539;53.188;8.696;2023-12-20T03:14:48;4.80;99.90
16846;DHT22;8539;53.188;8.696;2023-12-20T03:17:14;4.90;99.90
16846;DHT22;8539;53.188;8.696;2023-12-20T03:19:40;4.90;99.90
16846;DHT22;8539;53.188;8.696;2023-12-20T03:22:06;4.90;99.90
16846;DHT22;8539;53.188;8.696;2023-12-20T03:24:32;4.90;99.90
16846;DHT22;8539;53.188;8.696;2023-12-20T03:26:58;5.00;99.90
16846;DHT22;8539;53.188;8.696;2023-12-20T03:29:24;5.00;99.90
16846;DHT22;8539;53.188;8.696;2023-12-20T03:31:50;5.00;99.90
16846;DHT22;8539;53.188;8.696;2023-12-20T03:34:16;5.00;99.90
16846;DHT22;8539;53.188;8.696;2023-12-20T03:36:42;5.00;99.90
16846;DHT22;8539;53.188;8.696;2023-12-20T03:39:09;5.00;99.90
16846;DHT22;8539;53.188;8.696;2023-12-20T03:41:36;5.10;99.90
16846;DHT22;8539;53.188;8.696;2023-12-20T03:44:02;5.00;99.90
16846;DHT22;8539;53.188;8.696;2023-12-20T03:46:28;5.00;99.90
16846;DHT22;8539;53.188;8.696;2023-12-20T03:48:54;5.00;99.90
16846;DHT22;8539;53.188;8.696;2023-12-20T03:51:20;5.10;99.90
16846;DHT22;8539;53.188;8.696;2023-12-20T03:53:46;5.10;99.90
16846;DHT22;8539;53.188;8.696;2023-12-20T03:56:12;5.10;99.90
16846;DHT22;8539;53.188;8.696;2023-12-20T03:58:38;5.10;99.90
16846;DHT22;8539;53.188;8.696;2023-12-20T04:01:09;5.10;99.90
16846;DHT22;8539;53.188;8.696;2023-12-20T04:03:38;5.10;99.90
16846;DHT22;8539;53.188;8.696;2023-12-20T04:06:04;5.10;99.90
16846;DHT22;8539;53.188;8.696;2023-12-20T04:08:30;5.10;99.90
16846;DHT22;8539;53.188;8.696;2023-12-20T04:10:56;5.10;99.90
16846;DHT22;8539;53.188;8.696;2023-12-20T04:13:22;5.10;99.90
16846;DHT22;8539;53.188;8.696;2023-12-20T04:15:48;5.20;99.90
16846;DHT22;8539;53.188;8.696;2023-12-20T04:18:16;5.20;99.90
16846;DHT22;8539;53.188;8.696;2023-12-20T04:20:42;5.20;99.90
16846;DHT22;8539;53.188;8.696;2023-12-20T04:23:08;5.20;99.90
16846;DHT22;8539;53.188;8.696;2023-12-20T04:25:35;5.20;99.90
16846;DHT22;8539;53.188;8.696;2023-12-20T04:28:01;5.30;99.90
16846;DHT22;8539;53.188;8.696;2023-12-20T04:30:27;5.20;99.90
16846;DHT22;8539;53.188;8.696;2023-12-20T04:32:53;5.20;99.90
16846;DHT22;8539;53.188;8.696;2023-12-20T04:35:19;5.20;99.90
16846;DHT22;8539;53.188;8.696;2023-12-20T04:37:45;5.20;99.90
16846;DHT22;8539;53.188;8.696;2023-12-20T04:40:11;5.20;99.90
16846;DHT22;8539;53.188;8.696;2023-12-20T04:42:37;5.20;99.90
16846;DHT22;8539;53.188;8.696;2023-12-20T04:45:03;5.20;99.90
16846;DHT22;8539;53.188;8.696;2023-12-20T04:47:29;5.30;99.90
16846;DHT22;8539;53.188;8.696;2023-12-20T04:49:56;5.30;99.90
16846;DHT22;8539;53.188;8.696;2023-12-20T04:52:23;5.30;99.90
16846;DHT22;8539;53.188;8.696;2023-12-20T04:54:49;5.30;99.90
16846;DHT22;8539;53.188;8.696;2023-12-20T04:57:15;5.30;99.90
16846;DHT22;8539;53.188;8.696;2023-12-20T04:59:41;5.40;99.90
16846;DHT22;8539;53.188;8.696;2023-12-20T05:02:08;5.40;99.90
16846;DHT22;8539;53.188;8.696;2023-12-20T05:04:34;5.40;99.90
16846;DHT22;8539;53.188;8.696;2023-12-20T05:07:00;5.40;99.90
16846;DHT22;8539;53.188;8.696;2023-12-20T05:09:26;5.40;99.90
16846;DHT22;8539;53.188;8.696;2023-12-20T05:11:52;5.30;99.90
16846;DHT22;8539;53.188;8.696;2023-12-20T05:14:18;5.40;99.90
16846;DHT22;8539;53.188;8.696;2023-12-20T05:16:44;5.40;99.90
16846;DHT22;8539;53.188;8.696;2023-12-20T05:19:10;5.40;99.90
16846;DHT22;8539;53.188;8.696;2023-12-20T05:21:36;5.40;99.90
16846;DHT22;8539;53.188;8.696;2023-12-20T05:24:02;5.40;99.90
16846;DHT22;8539;53.188;8.696;2023-12-20T05:26:28;5.40;99.90
16846;DHT22;8539;53.188;8.696;2023-12-20T05:28:55;5.40;99.90
16846;DHT22;8539;53.188;8.696;2023-12-20T05:31:21;5.90;99.90
16846;DHT22;8539;53.188;8.696;2023-12-20T05:33:47;5.50;99.90
16846;DHT22;8539;53.188;8.696;2023-12-20T05:36:13;5.50;99.90
16846;DHT22;8539;53.188;8.696;2023-12-20T05:38:41;5.50;99.90
16846;DHT22;8539;53.188;8.696;2023-12-20T05:41:07;5.60;99.90
16846;DHT22;8539;53.188;8.696;2023-12-20T05:43:33;5.50;99.90
16846;DHT22;8539;53.188;8.696;2023-12-20T05:45:59;5.50;99.90
16846;DHT22;8539;53.188;8.696;2023-12-20T05:48:25;5.70;99.90
16846;DHT22;8539;53.188;8.696;2023-12-20T05:50:52;5.60;99.90
16846;DHT22;8539;53.188;8.696;2023-12-20T05:53:18;5.60;99.90
16846;DHT22;8539;53.188;8.696;2023-12-20T05:55:43;5.60;99.90
16846;DHT22;8539;53.188;8.696;2023-12-20T05:58:09;5.60;99.90
16846;DHT22;8539;53.188;8.696;2023-12-20T06:00:35;5.60;99.90
16846;DHT22;8539;53.188;8.696;2023-12-20T06:03:01;5.60;99.90
16846;DHT22;8539;53.188;8.696;2023-12-20T06:05:27;5.60;99.90
16846;DHT22;8539;53.188;8.696;2023-12-20T06:07:53;5.60;99.90
16846;DHT22;8539;53.188;8.696;2023-12-20T06:10:20;5.60;99.90
16846;DHT22;8539;53.188;8.696;2023-12-20T06:12:47;5.60;99.90
16846;DHT22;8539;53.188;8.696;2023-12-20T06:15:15;5.60;99.90
16846;DHT22;8539;53.188;8.696;2023-12-20T06:17:41;5.60;99.90
16846;DHT22;8539;53.188;8.696;2023-12-20T06:20:08;5.60;99.90
16846;DHT22;8539;53.188;8.696;2023-12-20T06:22:35;5.50;99.90
16846;DHT22;8539;53.188;8.696;2023-12-20T06:25:02;5.60;99.90
16846;DHT22;8539;53.188;8.696;2023-12-20T06:27:28;5.70;99.90
16846;DHT22;8539;53.188;8.696;2023-12-20T06:29:55;5.70;99.90
16846;DHT22;8539;53.188;8.696;2023-12-20T06:32:21;5.70;99.90
16846;DHT22;8539;53.188;8.696;2023-12-20T06:34:49;5.70;99.90
16846;DHT22;8539;53.188;8.696;2023-12-20T06:37:15;5.70;99.90
16846;DHT22;8539;53.188;8.696;2023-12-20T06:39:41;5.80;99.90
16846;DHT22;8539;53.188;8.696;2023-12-20T06:42:07;5.80;99.90
16846;DHT22;8539;53.188;8.696;2023-12-20T06:44:33;5.90;99.90
16846;DHT22;8539;53.188;8.696;2023-12-20T06:47:00;5.80;99.90
16846;DHT22;8539;53.188;8.696;2023-12-20T06:49:26;5.80;99.90
16846;DHT22;8539;53.188;8.696;2023-12-20T06:51:52;5.80;99.90
16846;DHT22;8539;53.188;8.696;2023-12-20T06:54:18;5.80;99.90
16846;DHT22;8539;53.188;8.696;2023-12-20T06:56:45;5.80;99.90
16846;DHT22;8539;53.188;8.696;2023-12-20T06:59:11;5.90;99.90
16846;DHT22;8539;53.188;8.696;2023-12-20T07:01:37;5.80;99.90
16846;DHT22;8539;53.188;8.696;2023-12-20T07:04:03;5.90;99.90
16846;DHT22;8539;53.188;8.696;2023-12-20T07:06:30;5.90;99.90
16846;DHT22;8539;53.188;8.696;2023-12-20T07:08:56;5.90;99.90
16846;DHT22;8539;53.188;8.696;2023-12-20T07:11:22;5.90;99.90
16846;DHT22;8539;53.188;8.696;2023-12-20T07:13:48;5.90;99.90
16846;DHT22;8539;53.188;8.696;2023-12-20T07:16:15;5.90;99.90
16846;DHT22;8539;53.188;8.696;2023-12-20T07:18:42;5.90;99.90
16846;DHT22;8539;53.188;8.696;2023-12-20T07:21:08;5.90;99.90
16846;DHT22;8539;53.188;8.696;2023-12-20T07:23:34;6.00;99.90
16846;DHT22;8539;53.188;8.696;2023-12-20T07:26:00;5.90;99.90
16846;DHT22;8539;53.188;8.696;2023-12-20T07:28:26;6.00;99.90
16846;DHT22;8539;53.188;8.696;2023-12-20T07:30:52;5.90;99.90
16846;DHT22;8539;53.188;8.696;2023-12-20T07:33:18;5.90;99.90
16846;DHT22;8539;53.188;8.696;2023-12-20T07:35:44;5.90;99.90
16846;DHT22;8539;53.188;8.696;2023-12-20T07:38:11;6.00;99.90
16846;DHT22;8539;53.188;8.696;2023-12-20T07:40:38;6.00;99.90
16846;DHT22;8539;53.188;8.696;2023-12-20T07:43:05;6.00;99.90
16846;DHT22;8539;53.188;8.696;2023-12-20T07:45:31;6.00;99.90
16846;DHT22;8539;53.188;8.696;2023-12-20T07:47:58;6.00;99.90
16846;DHT22;8539;53.188;8.696;2023-12-20T07:50:26;6.10;99.90
16846;DHT22;8539;53.188;8.696;2023-12-20T07:52:53;6.10;99.90
16846;DHT22;8539;53.188;8.696;2023-12-20T07:55:19;6.00;99.90
16846;DHT22;8539;53.188;8.696;2023-12-20T07:57:45;6.00;99.90
16846;DHT22;8539;53.188;8.696;2023-12-20T08:00:11;6.00;99.90
16846;DHT22;8539;53.188;8.696;2023-12-20T08:02:38;6.10;99.90
16846;DHT22;8539;53.188;8.696;2023-12-20T08:05:04;6.10;99.90
16846;DHT22;8539;53.188;8.696;2023-12-20T08:07:30;6.10;99.90
16846;DHT22;8539;53.188;8.696;2023-12-20T08:09:56;6.10;99.90
16846;DHT22;8539;53.188;8.696;2023-12-20T08:12:22;6.10;99.90
16846;DHT22;8539;53.188;8.696;2023-12-20T08:14:48;6.20;99.90
16846;DHT22;8539;53.188;8.696;2023-12-20T08:17:14;6.40;99.90
16846;DHT22;8539;53.188;8.696;2023-12-20T08:19:42;6.20;99.90
16846;DHT22;8539;53.188;8.696;2023-12-20T08:22:08;6.20;99.90
16846;DHT22;8539;53.188;8.696;2023-12-20T08:24:34;6.20;99.90
16846;DHT22;8539;53.188;8.696;2023-12-20T08:27:00;6.30;99.90
16846;DHT22;8539;53.188;8.696;2023-12-20T08:29:26;6.20;99.90
16846;DHT22;8539;53.188;8.696;2023-12-20T08:31:53;6.30;99.90
16846;DHT22;8539;53.188;8.696;2023-12-20T08:34:20;6.20;99.90
16846;DHT22;8539;53.188;8.696;2023-12-20T08:36:46;6.30;99.90
16846;DHT22;8539;53.188;8.696;2023-12-20T08:39:12;6.30;99.90
16846;DHT22;8539;53.188;8.696;2023-12-20T08:41:38;6.30;99.90
16846;DHT22;8539;53.188;8.696;2023-12-20T08:44:04;6.30;99.90
16846;DHT22;8539;53.188;8.696;2023-12-20T08:46:30;6.40;99.90
16846;DHT22;8539;53.188;8.696;2023-12-20T08:48:57;6.40;99.90
16846;DHT22;8539;53.188;8.696;2023-12-20T08:51:23;6.40;99.90
16846;DHT22;8539;53.188;8.696;2023-12-20T08:53:51;6.40;99.90
16846;DHT22;8539;53.188;8.696;2023-12-20T08:56:17;6.40;99.90
16846;DHT22;8539;53.188;8.696;2023-12-20T08:58:45;6.40;99.90
16846;DHT22;8539;53.188;8.696;2023-12-20T09:01:11;6.40;99.90
16846;DHT22;8539;53.188;8.696;2023-12-20T09:03:37;6.40;99.90
16846;DHT22;8539;53.188;8.696;2023-12-20T09:06:03;6.40;99.90
16846;DHT22;8539;53.188;8.696;2023-12-20T09:08:29;6.40;99.90
16846;DHT22;8539;53.188;8.696;2023-12-20T09:10:55;6.40;99.90
16846;DHT22;8539;53.188;8.696;2023-12-20T09:13:21;6.40;99.90
16846;DHT22;8539;53.188;8.696;2023-12-20T09:15:52;6.40;99.90
16846;DHT22;8539;53.188;8.696;2023-12-20T09:18:18;6.40;99.90
16846;DHT22;8539;53.188;8.696;2023-12-20T09:20:44;6.40;99.90
16846;DHT22;8539;53.188;8.696;2023-12-20T09:23:10;6.40;99.90
16846;DHT22;8539;53.188;8.696;2023-12-20T09:25:36;6.40;99.90
16846;DHT22;8539;53.188;8.696;2023-12-20T09:28:03;6.40;99.90
16846;DHT22;8539;53.188;8.696;2023-12-20T09:30:29;6.40;99.90
16846;DHT22;8539;53.188;8.696;2023-12-20T09:32:58;6.40;99.90
16846;DHT22;8539;53.188;8.696;2023-12-20T09:35:25;6.30;99.90
16846;DHT22;8539;53.188;8.696;2023-12-20T09:37:51;6.20;99.90
16846;DHT22;8539;53.188;8.696;2023-12-20T09:40:18;6.10;99.90
16846;DHT22;8539;53.188;8.696;2023-12-20T09:42:58;6.10;99.90
16846;DHT22;8539;53.188;8.696;2023-12-20T09:45:28;5.90;99.90
16846;DHT22;8539;53.188;8.696;2023-12-20T09:47:58;5.90;99.90
16846;DHT22;8539;53.188;8.696;2023-12-20T09:50:24;5.80;99.90
16846;DHT22;8539;53.188;8.696;2023-12-20T09:52:51;5.70;99.90
16846;DHT22;8539;53.188;8.696;2023-12-20T09:55:21;5.60;99.90
16846;DHT22;8539;53.188;8.696;2023-12-20T09:57:48;5.50;99.90
16846;DHT22;8539;53.188;8.696;2023-12-20T10:00:15;5.50;99.90
16846;DHT22;8539;53.188;8.696;2023-12-20T10:02:50;5.50;99.90
16846;DHT22;8539;53.188;8.696;2023-12-20T10:05:17;5.50;99.90
16846;DHT22;8539;53.188;8.696;2023-12-20T10:07:47;5.50;99.90
16846;DHT22;8539;53.188;8.696;2023-12-20T10:10:16;5.50;99.90
16846;DHT22;8539;53.188;8.696;2023-12-20T10:13:04;5.50;99.90
16846;DHT22;8539;53.188;8.696;2023-12-20T10:15:30;5.50;99.90
16846;DHT22;8539;53.188;8.696;2023-12-20T10:17:57;5.50;99.90
16846;DHT22;8539;53.188;8.696;2023-12-20T10:20:25;5.50;99.90
16846;DHT22;8539;53.188;8.696;2023-12-20T10:22:52;5.50;99.90
16846;DHT22;8539;53.188;8.696;2023-12-20T10:25:20;5.50;99.90
16846;DHT22;8539;53.188;8.696;2023-12-20T10:27:46;5.50;99.90
16846;DHT22;8539;53.188;8.696;2023-12-20T10:30:14;5.50;99.90
16846;DHT22;8539;53.188;8.696;2023-12-20T10:32:40;5.50;99.90
16846;DHT22;8539;53.188;8.696;2023-12-20T10:35:09;5.60;99.90
16846;DHT22;8539;53.188;8.696;2023-12-20T10:37:39;5.60;99.90
16846;DHT22;8539;53.188;8.696;2023-12-20T10:40:05;5.60;99.90
16846;DHT22;8539;53.188;8.696;2023-12-20T10:42:32;5.70;99.90
16846;DHT22;8539;53.188;8.696;2023-12-20T10:45:00;5.80;99.90
16846;DHT22;8539;53.188;8.696;2023-12-20T10:47:27;5.80;99.90
16846;DHT22;8539;53.188;8.696;2023-12-20T10:49:55;5.90;99.90
16846;DHT22;8539;53.188;8.696;2023-12-20T10:52:23;6.00;99.90
16846;DHT22;8539;53.188;8.696;2023-12-20T10:54:51;6.10;99.90
16846;DHT22;8539;53.188;8.696;2023-12-20T10:57:18;6.30;99.90
16846;DHT22;8539;53.188;8.696;2023-12-20T10:59:45;6.40;99.90
16846;DHT22;8539;53.188;8.696;2023-12-20T11:02:15;6.50;99.90
16846;DHT22;8539;53.188;8.696;2023-12-20T11:07:59;6.80;99.90
16846;DHT22;8539;53.188;8.696;2023-12-20T11:10:49;7.00;99.90
16846;DHT22;8539;53.188;8.696;2023-12-20T11:13:28;7.20;99.90
16846;DHT22;8539;53.188;8.696;2023-12-20T11:15:57;7.20;99.90
16846;DHT22;8539;53.188;8.696;2023-12-20T11:18:31;7.20;99.90
16846;DHT22;8539;53.188;8.696;2023-12-20T11:21:01;7.20;99.90
16846;DHT22;8539;53.188;8.696;2023-12-20T11:23:32;7.20;99.90
16846;DHT22;8539;53.188;8.696;2023-12-20T11:26:00;7.20;99.90
16846;DHT22;8539;53.188;8.696;2023-12-20T11:28:27;7.40;99.90
16846;DHT22;8539;53.188;8.696;2023-12-20T11:31:00;7.50;99.90
16846;DHT22;8539;53.188;8.696;2023-12-20T11:33:30;7.60;99.90
16846;DHT22;8539;53.188;8.696;2023-12-20T11:35:57;7.70;99.90
16846;DHT22;8539;53.188;8.696;2023-12-20T11:38:24;7.80;99.90
16846;DHT22;8539;53.188;8.696;2023-12-20T11:40:50;8.00;99.90
16846;DHT22;8539;53.188;8.696;2023-12-20T11:43:38;8.10;99.90
16846;DHT22;8539;53.188;8.696;2023-12-20T11:46:06;8.20;99.90
16846;DHT22;8539;53.188;8.696;2023-12-20T11:48:34;8.30;99.90
16846;DHT22;8539;53.188;8.696;2023-12-20T11:51:00;8.30;99.90
16846;DHT22;8539;53.188;8.696;2023-12-20T11:53:26;8.10;99.90
16846;DHT22;8539;53.188;8.696;2023-12-20T11:55:54;7.90;99.90
16846;DHT22;8539;53.188;8.696;2023-12-20T11:58:20;7.70;99.90
16846;DHT22;8539;53.188;8.696;2023-12-20T12:00:49;7.50;99.90
16846;DHT22;8539;53.188;8.696;2023-12-20T12:03:15;7.40;99.90
16846;DHT22;8539;53.188;8.696;2023-12-20T12:05:41;7.40;99.90
16846;DHT22;8539;53.188;8.696;2023-12-20T12:08:07;7.40;99.90
16846;DHT22;8539;53.188;8.696;2023-12-20T12:10:33;7.40;99.90
16846;DHT22;8539;53.188;8.696;2023-12-20T12:13:00;7.30;99.90
16846;DHT22;8539;53.188;8.696;2023-12-20T12:15:26;7.30;99.90
16846;DHT22;8539;53.188;8.696;2023-12-20T12:17:53;6.90;99.90
16846;DHT22;8539;53.188;8.696;2023-12-20T12:20:20;6.80;99.90
16846;DHT22;8539;53.188;8.696;2023-12-20T12:23:00;6.60;99.90
16846;DHT22;8539;53.188;8.696;2023-12-20T12:25:29;6.50;99.90
16846;DHT22;8539;53.188;8.696;2023-12-20T12:27:56;6.40;99.90
16846;DHT22;8539;53.188;8.696;2023-12-20T12:30:22;6.30;99.90
16846;DHT22;8539;53.188;8.696;2023-12-20T12:32:48;6.20;99.90
16846;DHT22;8539;53.188;8.696;2023-12-20T12:35:14;6.20;99.90
16846;DHT22;8539;53.188;8.696;2023-12-20T12:37:41;6.20;99.90
16846;DHT22;8539;53.188;8.696;2023-12-20T12:40:11;6.30;99.90
16846;DHT22;8539;53.188;8.696;2023-12-20T12:42:37;6.40;99.90
16846;DHT22;8539;53.188;8.696;2023-12-20T12:45:04;6.60;99.90
16846;DHT22;8539;53.188;8.696;2023-12-20T12:47:30;6.60;99.90
16846;DHT22;8539;53.188;8.696;2023-12-20T12:49:57;6.80;99.90
16846;DHT22;8539;53.188;8.696;2023-12-20T12:52:23;6.80;99.90
16846;DHT22;8539;53.188;8.696;2023-12-20T12:54:49;6.90;99.90
16846;DHT22;8539;53.188;8.696;2023-12-20T12:57:15;6.90;99.90
16846;DHT22;8539;53.188;8.696;2023-12-20T12:59:43;6.70;99.90
16846;DHT22;8539;53.188;8.696;2023-12-20T13:02:12;6.70;99.90
16846;DHT22;8539;53.188;8.696;2023-12-20T13:04:39;6.70;99.90
16846;DHT22;8539;53.188;8.696;2023-12-20T13:07:05;6.70;99.90
16846;DHT22;8539;53.188;8.696;2023-12-20T13:09:31;6.90;99.90
16846;DHT22;8539;53.188;8.696;2023-12-20T13:11:58;7.00;99.90
16846;DHT22;8539;53.188;8.696;2023-12-20T13:14:24;7.10;99.90
16846;DHT22;8539;53.188;8.696;2023-12-20T13:16:50;7.20;99.90
16846;DHT22;8539;53.188;8.696;2023-12-20T13:19:16;7.40;99.90
16846;DHT22;8539;53.188;8.696;2023-12-20T13:21:42;7.50;99.90
16846;DHT22;8539;53.188;8.696;2023-12-20T13:24:08;7.50;99.90
16846;DHT22;8539;53.188;8.696;2023-12-20T13:26:34;7.50;99.90
16846;DHT22;8539;53.188;8.696;2023-12-20T13:29:01;7.40;99.90
16846;DHT22;8539;53.188;8.696;2023-12-20T13:31:27;7.40;99.90
16846;DHT22;8539;53.188;8.696;2023-12-20T13:33:53;7.30;99.90
16846;DHT22;8539;53.188;8.696;2023-12-20T13:36:19;7.20;99.90
16846;DHT22;8539;53.188;8.696;2023-12-20T13:38:45;7.10;99.90
16846;DHT22;8539;53.188;8.696;2023-12-20T13:41:11;7.10;99.90
16846;DHT22;8539;53.188;8.696;2023-12-20T13:43:38;7.30;99.90
16846;DHT22;8539;53.188;8.696;2023-12-20T13:46:04;7.50;99.90
16846;DHT22;8539;53.188;8.696;2023-12-20T13:48:30;7.60;99.90
16846;DHT22;8539;53.188;8.696;2023-12-20T13:50:56;7.60;99.90
16846;DHT22;8539;53.188;8.696;2023-12-20T13:53:22;7.40;99.90
16846;DHT22;8539;53.188;8.696;2023-12-20T13:55:48;7.30;99.90
16846;DHT22;8539;53.188;8.696;2023-12-20T13:58:15;7.10;99.90
16846;DHT22;8539;53.188;8.696;2023-12-20T14:00:41;7.00;99.90
16846;DHT22;8539;53.188;8.696;2023-12-20T14:03:07;6.90;99.90
16846;DHT22;8539;53.188;8.696;2023-12-20T14:05:35;6.80;99.90
16846;DHT22;8539;53.188;8.696;2023-12-20T14:08:01;6.70;99.90
16846;DHT22;8539;53.188;8.696;2023-12-20T14:10:27;6.60;99.90
16846;DHT22;8539;53.188;8.696;2023-12-20T14:12:54;6.50;99.90
16846;DHT22;8539;53.188;8.696;2023-12-20T14:15:20;6.50;99.90
16846;DHT22;8539;53.188;8.696;2023-12-20T14:17:46;6.40;99.90
16846;DHT22;8539;53.188;8.696;2023-12-20T14:20:12;6.50;99.90
16846;DHT22;8539;53.188;8.696;2023-12-20T14:22:38;6.40;99.90
16846;DHT22;8539;53.188;8.696;2023-12-20T14:25:16;6.40;99.90
16846;DHT22;8539;53.188;8.696;2023-12-20T14:27:42;6.30;99.90
16846;DHT22;8539;53.188;8.696;2023-12-20T14:30:09;6.30;99.90
16846;DHT22;8539;53.188;8.696;2023-12-20T14:32:36;6.30;99.90
16846;DHT22;8539;53.188;8.696;2023-12-20T14:35:05;6.30;99.90
16846;DHT22;8539;53.188;8.696;2023-12-20T14:37:32;6.20;99.90
16846;DHT22;8539;53.188;8.696;2023-12-20T14:39:58;6.20;99.90
16846;DHT22;8539;53.188;8.696;2023-12-20T14:42:24;6.20;99.90
16846;DHT22;8539;53.188;8.696;2023-12-20T14:44:50;6.20;99.90
16846;DHT22;8539;53.188;8.696;2023-12-20T14:47:18;6.20;99.90
16846;DHT22;8539;53.188;8.696;2023-12-20T14:49:44;6.10;99.90
16846;DHT22;8539;53.188;8.696;2023-12-20T14:52:10;6.10;99.90
16846;DHT22;8539;53.188;8.696;2023-12-20T14:54:37;6.20;99.90
16846;DHT22;8539;53.188;8.696;2023-12-20T14:57:03;6.10;99.90
16846;DHT22;8539;53.188;8.696;2023-12-20T14:59:29;6.10;99.90
16846;DHT22;8539;53.188;8.696;2023-12-20T15:01:55;6.10;99.90
16846;DHT22;8539;53.188;8.696;2023-12-20T15:04:22;6.10;99.90
16846;DHT22;8539;53.188;8.696;2023-12-20T15:06:54;6.10;99.90
16846;DHT22;8539;53.188;8.696;2023-12-20T15:09:21;6.10;99.90
16846;DHT22;8539;53.188;8.696;2023-12-20T15:11:47;6.10;99.90
16846;DHT22;8539;53.188;8.696;2023-12-20T15:14:13;6.10;99.90
16846;DHT22;8539;53.188;8.696;2023-12-20T15:16:48;6.00;99.90
16846;DHT22;8539;53.188;8.696;2023-12-20T15:19:14;6.00;99.90
16846;DHT22;8539;53.188;8.696;2023-12-20T15:21:40;6.00;99.90
16846;DHT22;8539;53.188;8.696;2023-12-20T15:24:11;6.10;99.90
16846;DHT22;8539;53.188;8.696;2023-12-20T15:26:43;6.10;99.90
16846;DHT22;8539;53.188;8.696;2023-12-20T15:29:10;6.00;99.90
16846;DHT22;8539;53.188;8.696;2023-12-20T15:31:42;6.00;99.90
16846;DHT22;8539;53.188;8.696;2023-12-20T15:34:08;6.00;99.90
16846;DHT22;8539;53.188;8.696;2023-12-20T15:36:34;6.00;99.90
16846;DHT22;8539;53.188;8.696;2023-12-20T15:39:00;6.00;99.90
16846;DHT22;8539;53.188;8.696;2023-12-20T15:41:26;6.10;99.90
16846;DHT22;8539;53.188;8.696;2023-12-20T15:43:52;6.00;99.90
16846;DHT22;8539;53.188;8.696;2023-12-20T15:46:18;6.00;99.90
16846;DHT22;8539;53.188;8.696;2023-12-20T15:48:44;6.00;99.90
16846;DHT22;8539;53.188;8.696;2023-12-20T15:51:10;6.00;99.90
16846;DHT22;8539;53.188;8.696;2023-12-20T15:53:36;6.00;99.90
16846;DHT22;8539;53.188;8.696;2023-12-20T15:56:03;5.90;99.90
16846;DHT22;8539;53.188;8.696;2023-12-20T15:58:30;5.90;99.90
16846;DHT22;8539;53.188;8.696;2023-12-20T16:00:58;5.90;99.90
16846;DHT22;8539;53.188;8.696;2023-12-20T16:03:25;5.80;99.90